createdAt,value
2023-04-07T00:04:15.733Z,4.02
2023-04-07T00:09:24.983Z,4.18
2023-04-07T00:14:33.203Z,4.26
2023-04-07T00:19:43.090Z,4.41
2023-04-07T00:24:52.763Z,4.03
2023-04-07T00:30:01.495Z,4.40
2023-04-07T00:35:13.223Z,4.34
2023-04-07T00:40:14.408Z,4.40
2023-04-07T00:45:14.960Z,4.21
2023-04-07T00:50:07.293Z,4.34
2023-04-07T00:55:18.068Z,4.31
2023-04-07T01:00:18.706Z,4.55
2023-04-07T01:05:18.477Z,4.53
2023-04-07T01:10:26.965Z,4.56
2023-04-07T01:15:35.192Z,4.21
2023-04-07T01:20:43.632Z,4.27
2023-04-07T01:25:52.105Z,4.38
2023-04-07T01:31:00.921Z,4.31
2023-04-07T01:36:10.784Z,3.91
2023-04-07T01:41:21.079Z,4.75
2023-04-07T01:46:19.203Z,4.22
2023-04-07T01:51:27.861Z,4.48
2023-04-07T01:56:37.183Z,4.50
2023-04-07T02:01:49.252Z,4.58
2023-04-07T02:06:48.171Z,4.53
2023-04-07T02:12:00.559Z,4.55
2023-04-07T02:16:59.584Z,4.49
2023-04-07T02:22:09.312Z,4.55
2023-04-07T02:27:21.607Z,4.36
2023-04-07T02:32:20.257Z,4.45
2023-04-07T02:37:29.838Z,4.61
2023-04-07T02:42:39.779Z,4.49
2023-04-07T02:47:48.345Z,4.56
2023-04-07T02:52:58.441Z,4.51
2023-04-07T02:57:57.619Z,5.01
2023-04-07T03:03:07.205Z,4.66
2023-04-07T03:08:16.546Z,4.47
2023-04-07T03:13:26.199Z,4.80
2023-04-07T03:18:37.156Z,4.82
2023-04-07T03:23:37.405Z,4.37
2023-04-07T03:28:35.600Z,4.66
2023-04-07T03:33:44.128Z,4.95
2023-04-07T03:38:52.617Z,4.86
2023-04-07T03:44:02.177Z,5.09
2023-04-07T03:49:11.306Z,4.72
2023-04-07T03:54:21.015Z,4.62
2023-04-07T03:59:30.734Z,4.75
2023-04-07T04:04:39.504Z,4.99
2023-04-07T04:09:48.632Z,4.61
2023-04-07T04:14:57.516Z,4.69
2023-04-07T04:20:07.488Z,5.14
2023-04-07T04:25:17.660Z,5.11
2023-04-07T04:30:16.970Z,4.88
2023-04-07T04:35:25.536Z,5.03
2023-04-07T04:40:33.830Z,4.77
2023-04-07T04:45:42.910Z,4.81
2023-04-07T04:50:52.080Z,4.94
2023-04-07T04:56:02.496Z,4.66
2023-04-07T05:01:01.926Z,4.77
2023-04-07T05:06:11.636Z,4.55
2023-04-07T05:11:21.385Z,5.00
2023-04-07T05:16:30.260Z,4.59
2023-04-07T05:21:39.833Z,4.77
2023-04-07T05:26:48.706Z,4.68
2023-04-07T05:31:59.852Z,5.02
2023-04-07T05:36:58.338Z,5.19
2023-04-07T05:42:06.841Z,5.10
2023-04-07T05:47:15.241Z,5.04
2023-04-07T05:52:24.759Z,4.76
2023-04-07T05:57:33.684Z,4.92
2023-04-07T06:02:43.647Z,4.81
2023-04-07T06:07:52.435Z,4.64
2023-04-07T06:13:01.680Z,4.87
2023-04-07T06:18:11.669Z,4.70
2023-04-07T06:23:11.480Z,4.84
2023-04-07T06:28:20.440Z,4.90
2023-04-07T06:33:29.216Z,4.95
2023-04-07T06:38:38.052Z,4.94
2023-04-07T06:43:47.795Z,4.75
2023-04-07T06:48:55.896Z,5.03
2023-04-07T06:54:04.271Z,5.58
2023-04-07T06:59:14.595Z,5.00
2023-04-07T07:04:15.101Z,5.28
2023-04-07T07:09:15.241Z,5.11
2023-04-07T07:14:14.092Z,5.12
2023-04-07T07:19:24.400Z,5.23
2023-04-07T07:24:23.770Z,5.69
2023-04-07T07:29:34.491Z,5.39
2023-04-07T07:34:34.140Z,5.36
2023-04-07T07:39:44.503Z,5.15
2023-04-07T07:44:44.063Z,5.30
2023-04-07T07:49:52.514Z,5.42
2023-04-07T07:55:00.785Z,5.47
2023-04-07T08:00:11.013Z,5.51
2023-04-07T08:05:09.363Z,5.69
2023-04-07T08:10:18.032Z,5.77
2023-04-07T08:15:26.547Z,5.63
2023-04-07T08:20:36.574Z,5.58
2023-04-07T08:25:34.748Z,5.83
2023-04-07T08:30:44.396Z,5.97
2023-04-07T08:35:54.341Z,6.23
2023-04-07T08:41:04.230Z,6.74
2023-04-07T08:46:12.708Z,6.32
2023-04-07T08:51:21.615Z,6.32
2023-04-07T08:56:32.017Z,5.94
2023-04-07T09:01:32.032Z,6.00
2023-04-07T09:06:40.017Z,5.93
2023-04-07T09:11:49.788Z,6.03
2023-04-07T09:17:00.016Z,5.70
2023-04-07T09:21:59.923Z,6.63
2023-04-07T09:27:09.877Z,6.16
2023-04-07T09:32:18.469Z,6.29
2023-04-07T09:37:26.896Z,6.53
2023-04-07T09:42:38.058Z,6.71
2023-04-07T09:47:36.044Z,6.61
2023-04-07T09:52:46.546Z,6.57
2023-04-07T09:57:45.780Z,6.66
2023-04-07T10:02:55.536Z,6.51
2023-04-07T10:08:03.893Z,6.32
2023-04-07T10:13:12.950Z,6.52
2023-04-07T10:18:22.550Z,7.02
2023-04-07T10:23:31.492Z,6.53
2023-04-07T10:28:41.147Z,6.79
2023-04-07T10:33:50.689Z,7.12
2023-04-07T10:39:00.391Z,7.40
2023-04-07T10:43:59.016Z,7.54
2023-04-07T10:49:07.999Z,7.47
2023-04-07T10:54:18.178Z,7.49
2023-04-07T10:59:17.946Z,7.02
2023-04-07T11:04:29.722Z,7.02
2023-04-07T11:09:28.824Z,6.95
2023-04-07T11:14:37.601Z,7.00
2023-04-07T11:19:45.929Z,7.39
2023-04-07T11:24:55.494Z,7.68
2023-04-07T11:30:05.303Z,7.10
2023-04-07T11:35:13.959Z,7.21
2023-04-07T11:40:22.038Z,7.34
2023-04-07T11:45:30.718Z,7.14
2023-04-07T11:50:39.318Z,6.99
2023-04-07T11:55:47.745Z,7.32
2023-04-07T12:00:59.396Z,7.10
2023-04-07T12:05:58.003Z,6.87
2023-04-07T12:11:06.522Z,7.32
2023-04-07T12:16:17.678Z,7.74
2023-04-07T12:21:18.121Z,7.61
2023-04-07T12:26:18.212Z,7.58
2023-04-07T12:31:18.491Z,8.79
2023-04-07T12:36:19.790Z,7.76
2023-04-07T12:41:12.718Z,7.28
2023-04-07T12:46:22.341Z,7.10
2023-04-07T12:51:31.548Z,6.93
2023-04-07T12:56:42.057Z,7.10
2023-04-07T13:01:43.860Z,7.19
2023-04-07T13:06:43.460Z,7.27
2023-04-07T13:11:52.968Z,7.15
2023-04-07T13:17:02.797Z,7.22
2023-04-07T13:22:17.818Z,9.38
2023-04-07T13:27:22.411Z,7.58
2023-04-07T13:32:20.976Z,7.81
2023-04-07T13:37:30.517Z,7.01
2023-04-07T13:42:40.944Z,7.07
2023-04-07T13:47:40.771Z,6.99
2023-04-07T13:52:53.712Z,6.75
2023-04-07T13:57:52.652Z,7.33
2023-04-07T14:03:02.824Z,7.39
2023-04-07T14:08:11.009Z,8.27
2023-04-07T14:13:19.705Z,8.14
2023-04-07T14:18:28.359Z,8.00
2023-04-07T14:23:39.059Z,9.25
2023-04-07T14:28:39.009Z,8.44
2023-04-07T14:33:48.112Z,8.30
2023-04-07T14:38:57.671Z,8.26
2023-04-07T14:44:05.896Z,9.15
2023-04-07T14:49:16.467Z,9.30
2023-04-07T14:54:17.882Z,9.29
2023-04-07T14:59:17.049Z,8.55
2023-04-07T15:04:27.458Z,8.58
2023-04-07T15:09:27.096Z,8.84
2023-04-07T15:14:37.038Z,8.09
2023-04-07T15:19:46.011Z,7.90
2023-04-07T15:24:54.478Z,8.22
2023-04-07T15:30:04.844Z,8.66
2023-04-07T15:35:03.470Z,7.92
2023-04-07T15:40:13.568Z,7.97
2023-04-07T15:45:13.004Z,8.05
2023-04-07T15:50:23.545Z,7.63
2023-04-07T15:55:24.005Z,8.64
2023-04-07T16:00:24.379Z,8.58
2023-04-07T16:05:25.824Z,8.06
2023-04-07T16:10:24.838Z,7.55
2023-04-07T16:15:40.488Z,7.18
2023-04-07T16:20:34.117Z,7.65
2023-04-07T16:25:44.049Z,7.88
2023-04-07T16:30:54.615Z,7.67
2023-04-07T16:35:53.347Z,6.99
2023-04-07T16:41:04.393Z,7.62
2023-04-07T16:46:13.229Z,7.88
2023-04-07T16:51:13.368Z,7.13
2023-04-07T16:56:11.897Z,7.17
2023-04-07T17:01:26.366Z,6.66
2023-04-07T17:06:25.974Z,7.00
2023-04-07T17:11:35.724Z,7.19
2023-04-07T17:16:44.317Z,6.88
2023-04-07T17:21:54.166Z,8.68
2023-04-07T17:27:02.806Z,7.71
2023-04-07T17:32:12.626Z,6.35
2023-04-07T17:37:21.962Z,6.64
2023-04-07T17:42:32.260Z,8.12
2023-04-07T17:47:30.722Z,6.64
2023-04-07T17:52:42.924Z,7.04
2023-04-07T17:57:42.696Z,7.07
2023-04-07T18:02:53.684Z,8.15
2023-04-07T18:07:52.419Z,7.43
2023-04-07T18:13:02.905Z,8.67
2023-04-07T18:18:02.673Z,11.03
2023-04-07T18:23:13.299Z,11.74
2023-04-07T18:28:13.278Z,12.27
2023-04-07T18:33:23.809Z,10.48
2023-04-07T18:38:23.495Z,8.94
2023-04-07T18:43:32.432Z,9.38
2023-04-07T18:48:42.439Z,8.06
2023-04-07T18:53:46.341Z,7.49
2023-04-07T18:58:55.670Z,6.95
2023-04-07T19:04:06.193Z,7.95
2023-04-07T19:09:07.717Z,8.27
2023-04-07T19:14:10.253Z,10.23
2023-04-07T19:19:08.483Z,11.19
2023-04-07T19:24:18.652Z,11.89
2023-04-07T19:29:17.529Z,13.95
2023-04-07T19:34:27.826Z,10.89
2023-04-07T19:39:28.613Z,12.64
2023-04-07T19:44:27.822Z,11.41
2023-04-07T19:49:37.672Z,10.19
2023-04-07T19:54:47.764Z,9.26
2023-04-07T19:59:39.933Z,9.82
2023-04-07T20:04:49.691Z,8.88
2023-04-07T20:09:58.902Z,8.51
2023-04-07T20:15:09.497Z,9.10
2023-04-07T20:20:08.965Z,7.77
2023-04-07T20:25:20.185Z,7.14
2023-04-07T20:30:20.031Z,6.62
2023-04-07T20:35:29.028Z,7.19
2023-04-07T20:40:40.748Z,6.20
2023-04-07T20:45:40.638Z,6.26
2023-04-07T20:50:50.221Z,5.80
2023-04-07T20:56:00.696Z,5.89
2023-04-07T21:00:57.633Z,6.19
2023-04-07T21:06:08.960Z,6.19
2023-04-07T21:11:07.113Z,6.33
2023-04-07T21:16:17.661Z,5.93
2023-04-07T21:21:15.705Z,6.18
2023-04-07T21:26:27.824Z,5.48
2023-04-07T21:31:25.002Z,5.90
2023-04-07T21:36:34.645Z,5.54
2023-04-07T21:41:43.902Z,5.87
2023-04-07T21:46:54.460Z,5.57
2023-04-07T21:51:55.459Z,5.68
2023-04-07T21:56:56.130Z,5.74
2023-04-07T22:01:54.666Z,5.78
2023-04-07T22:07:03.441Z,5.36
2023-04-07T22:12:13.254Z,5.83
2023-04-07T22:17:21.935Z,5.92
2023-04-07T22:22:30.622Z,6.34
2023-04-07T22:27:40.985Z,6.52
2023-04-07T22:32:40.748Z,6.68
2023-04-07T22:37:49.429Z,6.52
2023-04-07T22:42:58.942Z,6.05
2023-04-07T22:48:07.847Z,5.75
2023-04-07T22:53:16.328Z,5.51
2023-04-07T22:58:26.172Z,5.38
2023-04-07T23:03:35.818Z,5.07
2023-04-07T23:08:45.041Z,5.39
2023-04-07T23:13:54.638Z,5.51
2023-04-07T23:19:04.344Z,5.03
2023-04-07T23:24:13.610Z,5.21
2023-04-07T23:29:23.677Z,5.28
2023-04-07T23:34:23.790Z,4.99
2023-04-07T23:39:24.291Z,5.33
2023-04-07T23:44:22.946Z,5.35
2023-04-07T23:49:31.595Z,5.11
2023-04-07T23:54:41.865Z,4.98
2023-04-07T23:59:41.186Z,4.93
